Terminal Aerodrome Forecast
Issued by NWS

Home | Current Version | Previous Version | Text Only | Print | Product List | Glossary On
Versions: 1 2 3 4 5 6 7 8 9 10 11 12 13 14 15 16 17 18
056
FTAK31 PAJN 041150
TAFAWG
TAF
PAWG 041150Z 0412/0512 15005KT P6SM VCSH BKN060
      TEMPO 0412/0415 VRB05KT 6SM -SHSN BR FEW005 BKN025 OVC060
     FM041800 11008KT P6SM FEW010 SCT060
     FM050300 08010KT P6SM SKC WS015/05025KT
      AMD LTD TO CLD VIS AND WIND 0412/0415=

USA.gov is the U.S. government's official web portal to all federal, state and local government web resources and services.